Terminal Aerodrome Forecast
Issued by NWS Cleveland, OH

Home | Current Version | Previous Version | Graphics & Text | Print | Product List | Glossary On
Versions: 1 2 3 4 5 6 7 8 9 10 11 12 13 14
000
FTUS41 KCLE 240818 AAA
TAFTOL
TAF AMD
KTOL 240818Z 2408/2506 31005KT P6SM FEW015 BKN090
      TEMPO 2410/2414 5SM BR BKN015
     FM241400 31008KT P6SM BKN018
     FM241800 33010KT P6SM BKN035
     FM250100 01005KT P6SM SCT040=

USA.gov is the U.S. government's official web portal to all federal, state and local government web resources and services.